BGKK

Details ICAO BGKK
Name Kulusuk
Region Greenland
Timezone America/Godthab (UTC-2.0)
Plans Departing 99
Arriving 107
Stats Elevation 113 ft / 34 m (AMSL)
Location 65.573600° -37.123600°
Runways 1
Magnetic Variation 22.039° W
Sunrise 2018-10-21 09:43:41 UTC / 2018-10-21 07:43:41 Local
Sunset 2018-10-21 18:44:52 UTC / 2018-10-21 16:44:52 Local
Advertisement - Login to hide

Runways

ID Width Length Bearing (true/mag) Surface Threshold Overrun Markings Lighting
11 98 ft / 30 m 3,938 ft / 1,200 m 83.99° / 106.03° GRAVEL 0 ft / 0 m 0 ft / 0 m VISUAL EDGE THRESHOLD
29 98 ft / 30 m 3,938 ft / 1,200 m 264.01° / 286.05° GRAVEL 0 ft / 0 m 0 ft / 0 m VISUAL EDGE THRESHOLD

Map

Weather


0- 5 10 15 20 25 30 35+ Temperature / °C

Clouds and Precipitation
Forecast for 2018-10-21 12:00 UTC. Updated 4 hours ago

Ground ~20,000 ft ~40,000 ft Winds

METAR

BGKK 211250Z 33014KT 9999 FEW030 M03/M10 Q0990

TAF

Not found
Warning: Do not use this data for real-world aviation or navigation. No guarantee of current accuracy is given.